createdAt,value
2022-12-23T00:00:58.207Z,7.22
2022-12-23T00:03:26.969Z,9.52
2022-12-23T00:05:54.811Z,9.00
2022-12-23T00:08:23.471Z,10.52
2022-12-23T00:10:54.107Z,12.07
2022-12-23T00:13:39.540Z,12.70
2022-12-23T00:16:09.530Z,11.07
2022-12-23T00:18:37.690Z,8.52
2022-12-23T00:21:09.202Z,10.38
2022-12-23T00:23:39.203Z,9.55
2022-12-23T00:26:13.797Z,14.48
2022-12-23T00:28:41.478Z,13.73
2022-12-23T00:31:10.256Z,17.17
2022-12-23T00:33:39.671Z,18.23
2022-12-23T00:36:13.264Z,21.58
2022-12-23T00:38:58.812Z,16.08
2022-12-23T00:41:45.515Z,22.17
2022-12-23T00:44:13.468Z,25.48
2022-12-23T00:46:41.275Z,24.88
2022-12-23T00:49:40.951Z,29.85
2022-12-23T00:52:10.511Z,29.20
2022-12-23T00:54:38.328Z,27.48
2022-12-23T00:57:07.900Z,20.52
2022-12-23T00:59:35.613Z,20.67
2022-12-23T01:02:20.941Z,18.05
2022-12-23T01:05:06.286Z,23.05
2022-12-23T01:07:34.028Z,24.65
2022-12-23T01:10:01.675Z,25.20
2022-12-23T01:12:30.753Z,22.10
2022-12-23T01:14:58.487Z,25.33
2022-12-23T01:17:26.217Z,26.40
2022-12-23T01:19:53.891Z,23.98
2022-12-23T01:22:21.569Z,22.45
2022-12-23T01:24:49.302Z,25.33
2022-12-23T01:27:17.069Z,21.17
2022-12-23T01:29:46.705Z,24.60
2022-12-23T01:32:15.236Z,22.17
2022-12-23T01:34:43.106Z,22.73
2022-12-23T01:37:10.767Z,22.00
2022-12-23T01:39:38.463Z,22.05
2022-12-23T01:42:28.406Z,21.95
2022-12-23T01:45:00.475Z,23.92
2022-12-23T01:47:33.994Z,19.20
2022-12-23T01:50:07.258Z,20.48
2022-12-23T01:52:39.818Z,26.45
2022-12-23T01:55:08.544Z,19.30
2022-12-23T01:57:39.831Z,22.73
2022-12-23T02:00:29.441Z,21.35
2022-12-23T02:03:14.709Z,26.25
2022-12-23T02:05:45.968Z,22.35
2022-12-23T02:08:33.192Z,22.27
2022-12-23T02:11:29.606Z,24.33
2022-12-23T02:14:28.585Z,19.98
2022-12-23T02:17:07.066Z,23.58
2022-12-23T02:19:54.380Z,26.25
2022-12-23T02:22:46.428Z,18.73
2022-12-23T02:25:33.451Z,21.35
2022-12-23T02:28:21.207Z,20.88
2022-12-23T02:30:57.676Z,16.65
2022-12-23T02:33:44.840Z,19.75
2022-12-23T02:36:24.479Z,19.17
2022-12-23T02:39:00.517Z,18.45
2022-12-23T02:41:36.059Z,21.23
2022-12-23T02:44:11.585Z,17.73
2022-12-23T02:46:47.157Z,24.83
2022-12-23T02:49:21.904Z,26.92
2022-12-23T02:51:54.701Z,23.23
2022-12-23T02:54:27.925Z,24.13
2022-12-23T02:56:57.652Z,31.38
2022-12-23T02:59:27.895Z,28.30
2022-12-23T03:01:58.330Z,26.10
2022-12-23T03:04:26.191Z,27.77
2022-12-23T03:06:56.143Z,21.98
2022-12-23T03:09:31.992Z,26.27
2022-12-23T03:12:06.077Z,19.40
2022-12-23T03:14:55.507Z,21.35
2022-12-23T03:17:36.995Z,25.33
2022-12-23T03:20:13.301Z,25.67
2022-12-23T03:22:50.964Z,24.42
2022-12-23T03:25:25.287Z,27.50
2022-12-23T03:27:59.857Z,23.40
2022-12-23T03:30:28.823Z,22.10
2022-12-23T03:33:02.717Z,26.25
2022-12-23T03:35:36.023Z,25.48
2022-12-23T03:38:04.670Z,20.10
2022-12-23T03:40:38.121Z,18.45
2022-12-23T03:43:12.356Z,20.55
2022-12-23T03:45:44.283Z,24.67
2022-12-23T03:48:21.075Z,17.20
2022-12-23T03:50:53.788Z,22.52
2022-12-23T03:53:26.885Z,19.90
2022-12-23T03:55:59.887Z,18.35
2022-12-23T03:58:36.347Z,17.27
2022-12-23T04:03:41.292Z,15.00
2022-12-23T04:06:15.533Z,13.75
2022-12-23T04:08:44.992Z,13.32
2022-12-23T04:11:13.605Z,14.00
2022-12-23T04:13:41.643Z,13.52
2022-12-23T04:16:09.598Z,17.80
2022-12-23T04:18:38.775Z,10.60
2022-12-23T04:21:07.130Z,9.70
2022-12-23T04:23:34.776Z,12.45
2022-12-23T04:26:02.469Z,8.18
2022-12-23T04:28:30.193Z,9.48
2022-12-23T04:30:58.104Z,12.80
2022-12-23T04:33:25.793Z,11.63
2022-12-23T04:35:54.798Z,9.82
2022-12-23T04:38:22.528Z,13.52
2022-12-23T04:40:50.183Z,13.07
2022-12-23T04:43:18.005Z,13.68
2022-12-23T04:45:45.743Z,12.82
2022-12-23T04:48:13.460Z,12.10
2022-12-23T04:50:41.457Z,14.32
2022-12-23T04:53:10.765Z,11.18
2022-12-23T04:55:38.510Z,12.82
2022-12-23T04:58:06.218Z,10.98
2022-12-23T05:00:39.174Z,11.38
2022-12-23T05:03:07.506Z,9.65
2022-12-23T05:05:35.473Z,9.35
2022-12-23T05:08:05.132Z,10.07
2022-12-23T05:10:34.224Z,9.23
2022-12-23T05:13:01.965Z,9.40
2022-12-23T05:15:29.694Z,9.20
2022-12-23T05:17:57.446Z,9.10
2022-12-23T05:20:25.130Z,8.07
2022-12-23T05:22:52.808Z,12.02
2022-12-23T05:25:20.516Z,12.02
2022-12-23T05:27:49.697Z,12.32
2022-12-23T05:30:17.494Z,13.68
2022-12-23T05:32:45.176Z,11.40
2022-12-23T05:35:12.878Z,12.93
2022-12-23T05:37:40.518Z,11.30
2022-12-23T05:40:09.547Z,12.05
2022-12-23T05:42:37.399Z,11.05
2022-12-23T05:45:07.559Z,11.43
2022-12-23T05:47:35.519Z,12.10
2022-12-23T05:50:03.428Z,10.27
2022-12-23T05:52:31.227Z,11.30
2022-12-23T05:54:58.903Z,13.15
2022-12-23T05:57:26.697Z,11.82
2022-12-23T05:59:54.365Z,11.88
2022-12-23T06:02:23.579Z,12.65
2022-12-23T06:04:51.433Z,13.20
2022-12-23T06:07:19.107Z,13.23
2022-12-23T06:09:46.824Z,12.75
2022-12-23T06:12:14.514Z,11.48
2022-12-23T06:14:42.247Z,11.85
2022-12-23T06:17:09.918Z,10.00
2022-12-23T06:19:39.020Z,12.48
2022-12-23T06:22:06.942Z,13.90
2022-12-23T06:24:34.620Z,10.88
2022-12-23T06:27:02.347Z,14.45
2022-12-23T06:29:30.260Z,14.63
2022-12-23T06:31:58.049Z,12.48
2022-12-23T06:34:25.859Z,14.18
2022-12-23T06:36:54.911Z,15.30
2022-12-23T06:39:22.592Z,13.20
2022-12-23T06:41:50.516Z,11.75
2022-12-23T06:44:18.282Z,15.90
2022-12-23T06:46:45.970Z,11.77
2022-12-23T06:49:14.177Z,11.55
2022-12-23T06:51:42.081Z,13.13
2022-12-23T06:54:12.796Z,14.07
2022-12-23T06:56:40.691Z,13.10
2022-12-23T06:59:08.581Z,10.27
2022-12-23T07:01:36.973Z,12.35
2022-12-23T07:04:05.475Z,14.00
2022-12-23T07:06:33.252Z,10.88
2022-12-23T07:09:01.087Z,13.38
2022-12-23T07:11:30.209Z,13.85
2022-12-23T07:13:59.468Z,15.80
2022-12-23T07:16:27.291Z,12.88
2022-12-23T07:18:55.124Z,12.13
2022-12-23T07:21:28.954Z,12.32
2022-12-23T07:23:57.506Z,12.15
2022-12-23T07:26:25.266Z,15.35
2022-12-23T07:28:54.531Z,15.88
2022-12-23T07:31:22.427Z,14.23
2022-12-23T07:33:50.322Z,19.10
2022-12-23T07:36:18.103Z,14.38
2022-12-23T07:38:45.804Z,16.65
2022-12-23T07:41:13.492Z,15.10
2022-12-23T07:43:41.162Z,14.30
2022-12-23T07:46:10.978Z,18.30
2022-12-23T07:48:40.245Z,16.92
2022-12-23T07:51:08.207Z,21.02
2022-12-23T07:53:36.330Z,16.77
2022-12-23T07:56:04.025Z,16.55
2022-12-23T07:58:31.730Z,14.75
2022-12-23T08:01:03.267Z,17.35
2022-12-23T08:03:32.913Z,16.92
2022-12-23T08:06:02.414Z,13.80
2022-12-23T08:08:30.416Z,19.17
2022-12-23T08:11:00.323Z,16.55
2022-12-23T08:13:28.659Z,16.83
2022-12-23T08:15:57.574Z,13.60
2022-12-23T08:18:26.398Z,18.60
2022-12-23T08:21:01.116Z,16.88
2022-12-23T08:23:30.163Z,14.55
2022-12-23T08:26:02.388Z,15.68
2022-12-23T08:28:30.483Z,16.15
2022-12-23T08:31:04.924Z,15.65
2022-12-23T08:33:32.759Z,20.83
2022-12-23T08:36:01.963Z,14.80
2022-12-23T08:38:29.724Z,14.60
2022-12-23T08:40:57.806Z,18.20
2022-12-23T08:43:30.224Z,16.63
2022-12-23T08:46:01.458Z,19.13
2022-12-23T08:48:29.120Z,17.90
2022-12-23T08:50:56.974Z,18.50
2022-12-23T08:53:26.017Z,17.80
2022-12-23T08:55:53.702Z,19.58
2022-12-23T08:58:21.446Z,16.35
2022-12-23T09:00:49.164Z,18.73
2022-12-23T09:03:16.900Z,16.35
2022-12-23T09:05:44.654Z,18.20
2022-12-23T09:08:12.429Z,17.50
2022-12-23T09:10:43.593Z,20.15
2022-12-23T09:13:16.289Z,14.15
2022-12-23T09:15:47.747Z,17.67
2022-12-23T09:18:15.463Z,17.30
2022-12-23T09:20:43.172Z,18.67
2022-12-23T09:23:10.954Z,18.10
2022-12-23T09:25:38.733Z,17.25
2022-12-23T09:28:08.610Z,20.60
2022-12-23T09:30:36.328Z,17.20
2022-12-23T09:33:04.052Z,18.65
2022-12-23T09:35:31.727Z,16.40
2022-12-23T09:37:59.422Z,17.42
2022-12-23T09:40:30.330Z,18.45
2022-12-23T09:43:13.125Z,15.98
2022-12-23T09:45:56.813Z,15.20
2022-12-23T09:48:27.966Z,17.58
2022-12-23T09:50:56.642Z,18.67
2022-12-23T09:53:33.835Z,18.40
2022-12-23T09:56:08.430Z,18.27
2022-12-23T09:58:43.725Z,16.98
2022-12-23T10:01:19.439Z,18.77
2022-12-23T10:04:10.817Z,16.27
2022-12-23T10:06:41.089Z,14.95
2022-12-23T10:09:11.122Z,18.55
2022-12-23T10:11:43.248Z,18.45
2022-12-23T10:14:18.114Z,18.35
2022-12-23T10:16:53.124Z,19.92
2022-12-23T10:19:25.785Z,17.23
2022-12-23T10:21:56.955Z,15.35
2022-12-23T10:24:27.614Z,16.70
2022-12-23T10:26:57.143Z,20.55
2022-12-23T10:29:26.529Z,17.85
2022-12-23T10:32:07.501Z,15.18
2022-12-23T10:34:45.698Z,16.77
2022-12-23T10:37:21.400Z,19.17
2022-12-23T10:40:02.043Z,15.37
2022-12-23T10:42:37.791Z,18.67
2022-12-23T10:45:21.473Z,17.88
2022-12-23T10:48:06.046Z,20.70
2022-12-23T10:50:50.480Z,16.23
2022-12-23T10:53:28.535Z,14.95
2022-12-23T10:55:58.229Z,14.82
2022-12-23T10:58:27.358Z,15.95
2022-12-23T11:00:57.078Z,13.55
2022-12-23T11:03:30.010Z,17.38
2022-12-23T11:05:59.118Z,15.15
2022-12-23T11:08:30.255Z,13.13
2022-12-23T11:11:01.193Z,16.08
2022-12-23T11:13:36.666Z,16.48
2022-12-23T11:16:16.277Z,14.73
2022-12-23T11:18:57.279Z,16.70
2022-12-23T11:21:25.576Z,18.80
2022-12-23T11:24:16.268Z,15.10
2022-12-23T11:26:44.681Z,14.32
2022-12-23T11:29:17.016Z,15.63
2022-12-23T11:31:45.330Z,14.77
2022-12-23T11:34:19.613Z,20.90
2022-12-23T11:36:56.571Z,18.15
2022-12-23T11:39:30.121Z,21.13
2022-12-23T11:42:06.109Z,14.55
2022-12-23T11:44:36.993Z,16.73
2022-12-23T11:47:21.304Z,15.98
2022-12-23T11:49:52.288Z,18.23
2022-12-23T11:52:21.965Z,16.65
2022-12-23T11:54:55.526Z,15.70
2022-12-23T11:57:29.135Z,17.27
2022-12-23T12:00:00.479Z,16.60
2022-12-23T12:02:36.260Z,17.38
2022-12-23T12:05:09.846Z,17.77
2022-12-23T12:07:37.765Z,13.90
2022-12-23T12:10:06.947Z,14.82
2022-12-23T12:12:34.689Z,15.43
2022-12-23T12:15:02.450Z,15.50
2022-12-23T12:17:37.382Z,18.20
2022-12-23T12:20:13.447Z,20.20
2022-12-23T12:22:46.120Z,17.23
2022-12-23T12:25:19.620Z,15.20
2022-12-23T12:27:55.093Z,16.20
2022-12-23T12:30:23.353Z,17.23
2022-12-23T12:33:00.801Z,17.98
2022-12-23T12:35:38.733Z,18.48
2022-12-23T12:38:14.396Z,16.67
2022-12-23T12:40:44.483Z,15.23
2022-12-23T12:43:21.599Z,15.38
2022-12-23T12:45:53.780Z,15.43
2022-12-23T12:48:40.251Z,16.33
2022-12-23T12:51:19.704Z,15.00
2022-12-23T12:54:04.942Z,15.82
2022-12-23T12:59:04.904Z,14.15
2022-12-23T13:01:46.887Z,16.02
2022-12-23T13:04:43.687Z,18.55
2022-12-23T13:07:25.090Z,15.20
2022-12-23T13:10:00.966Z,17.67
2022-12-23T13:12:43.344Z,16.70
2022-12-23T13:15:20.494Z,17.77
2022-12-23T13:18:03.672Z,18.92
2022-12-23T13:20:37.393Z,21.08
2022-12-23T13:23:41.742Z,17.58
2022-12-23T13:26:10.788Z,19.88
2022-12-23T13:28:48.771Z,16.30
2022-12-23T13:31:26.412Z,19.65
2022-12-23T13:34:04.231Z,17.67
2022-12-23T13:36:44.207Z,19.90
2022-12-23T13:39:30.999Z,17.77
2022-12-23T13:42:05.518Z,18.40
2022-12-23T13:44:35.824Z,17.33
2022-12-23T13:47:12.504Z,15.38
2022-12-23T13:49:54.004Z,15.23
2022-12-23T13:52:30.292Z,19.73
2022-12-23T13:57:47.342Z,19.23
2022-12-23T14:00:26.959Z,17.33
2022-12-23T14:03:20.683Z,18.55
2022-12-23T14:05:50.525Z,19.08
2022-12-23T14:08:25.686Z,20.20
2022-12-23T14:10:58.500Z,17.70
2022-12-23T14:13:31.046Z,18.45
2022-12-23T14:16:14.834Z,18.52
2022-12-23T14:19:10.223Z,20.63
2022-12-23T14:21:48.151Z,18.30
2022-12-23T14:24:36.778Z,19.98
2022-12-23T14:27:43.315Z,18.50
2022-12-23T14:30:16.205Z,13.20
2022-12-23T14:32:48.703Z,20.17
2022-12-23T14:35:23.748Z,18.73
2022-12-23T14:38:23.447Z,20.10
2022-12-23T14:40:58.566Z,16.23
2022-12-23T14:43:34.656Z,19.45
2022-12-23T14:46:04.877Z,22.00
2022-12-23T14:49:38.202Z,26.38
2022-12-23T14:52:42.637Z,25.15
2022-12-23T14:55:40.438Z,20.65
2022-12-23T14:58:20.536Z,21.80
2022-12-23T15:00:53.745Z,20.58
2022-12-23T15:03:21.626Z,19.88
2022-12-23T15:05:50.946Z,19.13
2022-12-23T15:08:31.448Z,23.83
2022-12-23T15:11:00.373Z,22.00
2022-12-23T15:13:29.671Z,21.85
2022-12-23T15:16:01.729Z,16.88
2022-12-23T15:18:29.929Z,21.63
2022-12-23T15:21:03.231Z,18.83
2022-12-23T15:23:31.168Z,24.42
2022-12-23T15:26:00.955Z,17.67
2022-12-23T15:28:36.925Z,20.98
2022-12-23T15:31:07.574Z,16.60
2022-12-23T15:34:02.471Z,21.90
2022-12-23T15:36:30.695Z,23.85
2022-12-23T15:39:00.571Z,18.45
2022-12-23T15:41:28.836Z,18.58
2022-12-23T15:44:01.906Z,20.48
2022-12-23T15:46:32.842Z,21.92
2022-12-23T15:49:00.625Z,20.45
2022-12-23T15:51:58.335Z,18.35
2022-12-23T15:54:23.863Z,20.77
2022-12-23T15:56:54.362Z,22.75
2022-12-23T15:59:28.575Z,22.45
2022-12-23T16:01:57.760Z,15.63
2022-12-23T16:04:28.229Z,22.00
2022-12-23T16:06:57.304Z,22.05
2022-12-23T16:09:32.708Z,17.45
2022-12-23T16:12:02.131Z,25.05
2022-12-23T16:14:36.302Z,19.85
2022-12-23T16:17:18.258Z,23.98
2022-12-23T16:19:47.302Z,20.52
2022-12-23T16:22:25.482Z,20.63
2022-12-23T16:24:59.909Z,23.08
2022-12-23T16:27:35.696Z,21.67
2022-12-23T16:30:11.464Z,26.42
2022-12-23T16:32:52.319Z,22.65
2022-12-23T16:35:34.364Z,22.25
2022-12-23T16:38:15.473Z,27.63
2022-12-23T16:40:44.406Z,23.42
2022-12-23T16:43:12.559Z,19.45
2022-12-23T16:45:41.215Z,21.88
2022-12-23T16:48:17.970Z,24.48
2022-12-23T16:50:46.973Z,23.17
2022-12-23T16:53:15.559Z,27.17
2022-12-23T16:55:51.160Z,26.75
2022-12-23T16:58:20.453Z,23.45
2022-12-23T17:00:48.453Z,21.08
2022-12-23T17:03:22.248Z,24.27
2022-12-23T17:05:50.253Z,25.63
2022-12-23T17:08:18.138Z,24.48
2022-12-23T17:10:46.368Z,26.35
2022-12-23T17:13:17.296Z,22.73
2022-12-23T17:15:45.448Z,21.67
2022-12-23T17:18:14.926Z,25.13
2022-12-23T17:20:45.888Z,26.13
2022-12-23T17:23:27.186Z,25.05
2022-12-23T17:25:55.080Z,24.35
2022-12-23T17:28:23.155Z,25.08
2022-12-23T17:30:54.962Z,21.35
2022-12-23T17:33:25.033Z,25.05
2022-12-23T17:35:55.681Z,23.67
2022-12-23T17:38:23.686Z,22.50
2022-12-23T17:40:52.079Z,26.10
2022-12-23T17:43:19.827Z,22.02
2022-12-23T17:45:48.176Z,24.70
2022-12-23T17:48:20.838Z,27.73
2022-12-23T17:50:50.997Z,20.63
2022-12-23T17:53:21.119Z,21.35
2022-12-23T17:55:48.780Z,22.55
2022-12-23T17:58:16.423Z,23.30
2022-12-23T18:00:44.186Z,20.58
2022-12-23T18:03:23.123Z,21.92
2022-12-23T18:05:55.638Z,21.10
2022-12-23T18:08:31.049Z,26.33
2022-12-23T18:10:59.391Z,24.65
2022-12-23T18:13:27.130Z,19.83
2022-12-23T18:15:54.862Z,22.65
2022-12-23T18:18:32.123Z,20.77
2022-12-23T18:21:01.561Z,17.92
2022-12-23T18:23:32.874Z,18.33
2022-12-23T18:26:01.404Z,21.83
2022-12-23T18:28:29.158Z,21.80
2022-12-23T18:30:58.002Z,20.00
2022-12-23T18:33:28.949Z,18.58
2022-12-23T18:35:57.167Z,22.55
2022-12-23T18:38:24.918Z,19.90
2022-12-23T18:40:56.678Z,21.90
2022-12-23T18:43:26.479Z,21.25
2022-12-23T18:45:54.535Z,29.20
2022-12-23T18:48:22.486Z,20.60
2022-12-23T18:50:50.230Z,20.88
2022-12-23T18:53:23.716Z,21.88
2022-12-23T18:55:54.407Z,18.52
2022-12-23T18:58:23.354Z,17.95
2022-12-23T19:00:52.545Z,20.10
2022-12-23T19:03:23.778Z,19.63
2022-12-23T19:05:52.872Z,20.20
2022-12-23T19:08:26.156Z,20.13
2022-12-23T19:10:56.776Z,17.42
2022-12-23T19:13:24.554Z,19.58
2022-12-23T19:15:52.815Z,21.30
2022-12-23T19:18:22.667Z,18.65
2022-12-23T19:20:50.816Z,19.80
2022-12-23T19:23:18.595Z,18.77
2022-12-23T19:25:54.384Z,18.13
2022-12-23T19:28:24.896Z,18.83
2022-12-23T19:30:52.858Z,19.83
2022-12-23T19:33:20.625Z,20.52
2022-12-23T19:35:48.372Z,19.65
2022-12-23T19:38:16.089Z,19.52
2022-12-23T19:40:43.866Z,20.95
2022-12-23T19:43:11.589Z,21.50
2022-12-23T19:45:41.049Z,22.10
2022-12-23T19:48:09.632Z,19.40
2022-12-23T19:50:37.301Z,22.92
2022-12-23T19:53:05.017Z,25.30
2022-12-23T19:55:32.747Z,20.92
2022-12-23T19:58:00.456Z,22.23
2022-12-23T20:00:28.141Z,27.83
2022-12-23T20:02:59.123Z,19.83
2022-12-23T20:05:27.377Z,16.70
2022-12-23T20:07:55.096Z,21.65
2022-12-23T20:10:22.768Z,21.38
2022-12-23T20:12:50.546Z,18.88
2022-12-23T20:15:18.376Z,18.58
2022-12-23T20:17:46.029Z,19.77
2022-12-23T20:20:16.331Z,19.48
2022-12-23T20:22:44.007Z,19.67
2022-12-23T20:25:11.774Z,16.77
2022-12-23T20:27:39.698Z,18.90
2022-12-23T20:30:08.879Z,18.95
2022-12-23T20:32:36.510Z,20.75
2022-12-23T20:35:04.498Z,19.35
2022-12-23T20:37:33.500Z,21.45
2022-12-23T20:40:01.183Z,20.92
2022-12-23T20:42:28.874Z,23.60
2022-12-23T20:44:56.613Z,24.35
2022-12-23T20:47:24.302Z,22.98
2022-12-23T20:49:51.985Z,23.98
2022-12-23T20:52:19.739Z,24.60
2022-12-23T20:54:48.760Z,25.25
2022-12-23T20:57:16.437Z,26.95
2022-12-23T20:59:44.283Z,31.02
2022-12-23T21:02:13.611Z,33.35
2022-12-23T21:04:41.610Z,35.35
2022-12-23T21:07:09.637Z,29.80
2022-12-23T21:09:37.323Z,30.75
2022-12-23T21:12:06.795Z,25.13
2022-12-23T21:14:34.729Z,22.98
2022-12-23T21:17:02.435Z,28.17
2022-12-23T21:19:30.298Z,26.73
2022-12-23T21:21:58.234Z,27.42
2022-12-23T21:24:26.058Z,30.60
2022-12-23T21:26:56.800Z,29.83
2022-12-23T21:29:26.722Z,25.80
2022-12-23T21:31:55.198Z,32.95
2022-12-23T21:34:23.332Z,30.00
2022-12-23T21:36:51.070Z,27.83
2022-12-23T21:39:18.838Z,26.05
2022-12-23T21:41:49.026Z,27.17
2022-12-23T21:44:16.772Z,26.85
2022-12-23T21:46:45.882Z,22.20
2022-12-23T21:49:14.167Z,25.20
2022-12-23T21:51:42.310Z,24.60
2022-12-23T21:54:10.923Z,28.20
2022-12-23T21:56:39.824Z,20.80
2022-12-23T21:59:09.656Z,18.52
2022-12-23T22:01:37.395Z,19.27
2022-12-23T22:04:07.011Z,18.00
2022-12-23T22:06:38.858Z,23.27
2022-12-23T22:09:08.182Z,23.42
2022-12-23T22:11:37.619Z,22.83
2022-12-23T22:14:07.737Z,23.85
2022-12-23T22:16:36.572Z,19.58
2022-12-23T22:19:06.949Z,19.25
2022-12-23T22:21:35.630Z,13.82
2022-12-23T22:24:04.489Z,21.13
2022-12-23T22:26:33.467Z,20.13
2022-12-23T22:29:05.442Z,21.55
2022-12-23T22:31:37.287Z,15.63
2022-12-23T22:34:07.433Z,12.88
2022-12-23T22:36:35.479Z,19.55
2022-12-23T22:39:04.197Z,20.23
2022-12-23T22:41:32.221Z,18.02
2022-12-23T22:44:00.510Z,14.88
2022-12-23T22:46:29.158Z,17.15
2022-12-23T22:48:58.649Z,16.30
2022-12-23T22:51:30.274Z,16.75
2022-12-23T22:53:58.747Z,23.08
2022-12-23T22:56:27.199Z,16.92
2022-12-23T22:58:55.210Z,12.75
2022-12-23T23:01:26.157Z,12.40
2022-12-23T23:03:57.692Z,17.15
2022-12-23T23:06:27.808Z,12.50
2022-12-23T23:08:56.330Z,12.65
2022-12-23T23:11:25.347Z,11.15
2022-12-23T23:13:53.568Z,13.55
2022-12-23T23:16:21.680Z,11.43
2022-12-23T23:18:49.703Z,13.48
2022-12-23T23:21:17.746Z,12.80
2022-12-23T23:23:47.009Z,13.07
2022-12-23T23:26:15.453Z,15.43
2022-12-23T23:28:43.883Z,14.55
2022-12-23T23:34:00.845Z,11.68
2022-12-23T23:36:28.673Z,10.93
2022-12-23T23:38:57.848Z,14.88
2022-12-23T23:41:25.597Z,8.77
2022-12-23T23:43:53.407Z,8.27
2022-12-23T23:46:21.164Z,8.25
2022-12-23T23:48:48.972Z,11.00
2022-12-23T23:51:16.716Z,13.70
2022-12-23T23:53:44.384Z,9.95
2022-12-23T23:56:13.408Z,12.95
2022-12-23T23:58:41.336Z,9.23
